sensor_id;sensor_type;location;lat;lon;timestamp;temperature;humidity
7129;DHT22;3606;52.930;8.644;2023-03-01T00:01:59;-4.20;99.90
7129;DHT22;3606;52.930;8.644;2023-03-01T00:04:25;-4.10;99.90
7129;DHT22;3606;52.930;8.644;2023-03-01T00:06:51;-4.10;99.90
7129;DHT22;3606;52.930;8.644;2023-03-01T00:09:17;-4.00;99.90
7129;DHT22;3606;52.930;8.644;2023-03-01T00:11:44;-4.00;99.90
7129;DHT22;3606;52.930;8.644;2023-03-01T00:14:10;-4.00;99.90
7129;DHT22;3606;52.930;8.644;2023-03-01T00:16:38;-4.00;99.90
7129;DHT22;3606;52.930;8.644;2023-03-01T00:19:09;-4.00;99.90
7129;DHT22;3606;52.930;8.644;2023-03-01T00:21:36;-4.10;99.90
7129;DHT22;3606;52.930;8.644;2023-03-01T00:24:02;-4.10;99.90
7129;DHT22;3606;52.930;8.644;2023-03-01T00:26:28;-4.10;99.90
7129;DHT22;3606;52.930;8.644;2023-03-01T00:28:56;-4.10;99.90
7129;DHT22;3606;52.930;8.644;2023-03-01T00:31:23;-4.00;99.90
7129;DHT22;3606;52.930;8.644;2023-03-01T00:33:54;-4.10;99.90
7129;DHT22;3606;52.930;8.644;2023-03-01T00:36:27;-4.10;99.90
7129;DHT22;3606;52.930;8.644;2023-03-01T00:38:54;-4.10;99.90
7129;DHT22;3606;52.930;8.644;2023-03-01T00:41:20;-4.00;99.90
7129;DHT22;3606;52.930;8.644;2023-03-01T00:43:48;-4.10;99.90
7129;DHT22;3606;52.930;8.644;2023-03-01T00:46:16;-4.10;99.90
7129;DHT22;3606;52.930;8.644;2023-03-01T00:48:42;-4.20;99.90
7129;DHT22;3606;52.930;8.644;2023-03-01T00:51:13;-4.20;99.90
7129;DHT22;3606;52.930;8.644;2023-03-01T00:53:39;-4.20;99.90
7129;DHT22;3606;52.930;8.644;2023-03-01T00:56:06;-4.20;99.90
7129;DHT22;3606;52.930;8.644;2023-03-01T00:58:32;-4.30;99.90
7129;DHT22;3606;52.930;8.644;2023-03-01T01:00:58;-4.30;99.90
7129;DHT22;3606;52.930;8.644;2023-03-01T01:03:24;-4.30;99.90
7129;DHT22;3606;52.930;8.644;2023-03-01T01:05:51;-4.30;99.90
7129;DHT22;3606;52.930;8.644;2023-03-01T01:08:17;-4.30;99.90
7129;DHT22;3606;52.930;8.644;2023-03-01T01:10:46;-4.30;99.90
7129;DHT22;3606;52.930;8.644;2023-03-01T01:13:13;-4.30;99.90
7129;DHT22;3606;52.930;8.644;2023-03-01T01:15:39;-4.30;99.90
7129;DHT22;3606;52.930;8.644;2023-03-01T01:18:05;-4.40;99.90
7129;DHT22;3606;52.930;8.644;2023-03-01T01:20:31;-4.40;99.90
7129;DHT22;3606;52.930;8.644;2023-03-01T01:22:56;-4.30;99.90
7129;DHT22;3606;52.930;8.644;2023-03-01T01:25:22;-4.30;99.90
7129;DHT22;3606;52.930;8.644;2023-03-01T01:27:50;-4.30;99.90
7129;DHT22;3606;52.930;8.644;2023-03-01T01:30:16;-4.30;99.90
7129;DHT22;3606;52.930;8.644;2023-03-01T01:32:42;-4.30;99.90
7129;DHT22;3606;52.930;8.644;2023-03-01T01:35:07;-4.40;99.90
7129;DHT22;3606;52.930;8.644;2023-03-01T01:37:33;-4.40;99.90
7129;DHT22;3606;52.930;8.644;2023-03-01T01:39:59;-4.40;99.90
7129;DHT22;3606;52.930;8.644;2023-03-01T01:42:25;-4.40;99.90
7129;DHT22;3606;52.930;8.644;2023-03-01T01:48:04;-4.40;99.90
7129;DHT22;3606;52.930;8.644;2023-03-01T01:50:33;-4.40;99.90
7129;DHT22;3606;52.930;8.644;2023-03-01T01:53:09;-4.50;99.90
7129;DHT22;3606;52.930;8.644;2023-03-01T01:55:41;-4.50;99.90
7129;DHT22;3606;52.930;8.644;2023-03-01T01:58:09;-4.50;99.90
7129;DHT22;3606;52.930;8.644;2023-03-01T02:00:37;-4.50;99.90
7129;DHT22;3606;52.930;8.644;2023-03-01T02:03:13;-4.50;99.90
7129;DHT22;3606;52.930;8.644;2023-03-01T02:06:03;-4.50;99.90
7129;DHT22;3606;52.930;8.644;2023-03-01T02:08:32;-4.50;99.90
7129;DHT22;3606;52.930;8.644;2023-03-01T02:10:59;-4.50;99.90
7129;DHT22;3606;52.930;8.644;2023-03-01T02:13:26;-4.60;99.90
7129;DHT22;3606;52.930;8.644;2023-03-01T02:15:52;-4.60;99.90
7129;DHT22;3606;52.930;8.644;2023-03-01T02:18:21;-4.60;99.90
7129;DHT22;3606;52.930;8.644;2023-03-01T02:23:54;-4.60;99.90
7129;DHT22;3606;52.930;8.644;2023-03-01T02:26:32;-4.60;99.90
7129;DHT22;3606;52.930;8.644;2023-03-01T02:29:00;-4.60;99.90
7129;DHT22;3606;52.930;8.644;2023-03-01T02:31:25;-4.50;99.90
7129;DHT22;3606;52.930;8.644;2023-03-01T02:34:12;-4.60;99.90
7129;DHT22;3606;52.930;8.644;2023-03-01T02:36:47;-4.60;99.90
7129;DHT22;3606;52.930;8.644;2023-03-01T02:39:21;-4.60;99.90
7129;DHT22;3606;52.930;8.644;2023-03-01T02:41:50;-4.60;99.90
7129;DHT22;3606;52.930;8.644;2023-03-01T02:44:17;-4.60;99.90
7129;DHT22;3606;52.930;8.644;2023-03-01T02:46:45;-4.50;99.90
7129;DHT22;3606;52.930;8.644;2023-03-01T02:49:31;-4.50;99.90
7129;DHT22;3606;52.930;8.644;2023-03-01T02:54:50;-4.60;99.90
7129;DHT22;3606;52.930;8.644;2023-03-01T02:57:17;-4.60;99.90
7129;DHT22;3606;52.930;8.644;2023-03-01T02:59:44;-4.60;99.90
7129;DHT22;3606;52.930;8.644;2023-03-01T03:02:24;-4.70;99.90
7129;DHT22;3606;52.930;8.644;2023-03-01T03:05:28;-4.70;99.90
7129;DHT22;3606;52.930;8.644;2023-03-01T03:07:55;-4.70;99.90
7129;DHT22;3606;52.930;8.644;2023-03-01T03:10:30;-4.70;99.90
7129;DHT22;3606;52.930;8.644;2023-03-01T03:13:02;-4.70;99.90
7129;DHT22;3606;52.930;8.644;2023-03-01T03:15:28;-4.70;99.90
7129;DHT22;3606;52.930;8.644;2023-03-01T03:17:55;-4.80;99.90
7129;DHT22;3606;52.930;8.644;2023-03-01T03:20:24;-4.80;99.90
7129;DHT22;3606;52.930;8.644;2023-03-01T03:22:53;-4.80;99.90
7129;DHT22;3606;52.930;8.644;2023-03-01T03:25:20;-4.80;99.90
7129;DHT22;3606;52.930;8.644;2023-03-01T03:27:48;-4.80;99.90
7129;DHT22;3606;52.930;8.644;2023-03-01T03:30:17;-4.80;99.90
7129;DHT22;3606;52.930;8.644;2023-03-01T03:32:46;-4.80;99.90
7129;DHT22;3606;52.930;8.644;2023-03-01T03:35:23;-4.80;99.90
7129;DHT22;3606;52.930;8.644;2023-03-01T03:37:50;-4.80;99.90
7129;DHT22;3606;52.930;8.644;2023-03-01T03:40:35;-4.90;99.90
7129;DHT22;3606;52.930;8.644;2023-03-01T03:43:03;-4.90;99.90
7129;DHT22;3606;52.930;8.644;2023-03-01T03:45:28;-4.90;99.90
7129;DHT22;3606;52.930;8.644;2023-03-01T03:47:54;-4.90;99.90
7129;DHT22;3606;52.930;8.644;2023-03-01T03:50:20;-4.90;99.90
7129;DHT22;3606;52.930;8.644;2023-03-01T03:52:45;-4.90;99.90
7129;DHT22;3606;52.930;8.644;2023-03-01T03:55:12;-4.90;99.90
7129;DHT22;3606;52.930;8.644;2023-03-01T03:57:41;-4.90;99.90
7129;DHT22;3606;52.930;8.644;2023-03-01T04:00:10;-4.90;99.90
7129;DHT22;3606;52.930;8.644;2023-03-01T04:02:42;-4.90;99.90
7129;DHT22;3606;52.930;8.644;2023-03-01T04:05:10;-4.90;99.90
7129;DHT22;3606;52.930;8.644;2023-03-01T04:07:37;-4.90;99.90
7129;DHT22;3606;52.930;8.644;2023-03-01T04:10:04;-4.90;99.90
7129;DHT22;3606;52.930;8.644;2023-03-01T04:12:31;-5.00;99.90
7129;DHT22;3606;52.930;8.644;2023-03-01T04:14:59;-5.00;99.90
7129;DHT22;3606;52.930;8.644;2023-03-01T04:17:25;-5.00;99.90
7129;DHT22;3606;52.930;8.644;2023-03-01T04:19:51;-4.90;99.90
7129;DHT22;3606;52.930;8.644;2023-03-01T04:22:16;-5.00;99.90
7129;DHT22;3606;52.930;8.644;2023-03-01T04:24:44;-5.00;99.90
7129;DHT22;3606;52.930;8.644;2023-03-01T04:27:11;-5.00;99.90
7129;DHT22;3606;52.930;8.644;2023-03-01T04:29:36;-4.90;99.90
7129;DHT22;3606;52.930;8.644;2023-03-01T04:32:02;-4.90;99.90
7129;DHT22;3606;52.930;8.644;2023-03-01T04:34:29;-4.90;99.90
7129;DHT22;3606;52.930;8.644;2023-03-01T04:36:55;-4.90;99.90
7129;DHT22;3606;52.930;8.644;2023-03-01T04:39:21;-4.90;99.90
7129;DHT22;3606;52.930;8.644;2023-03-01T04:41:46;-4.80;99.90
7129;DHT22;3606;52.930;8.644;2023-03-01T04:44:12;-4.80;99.90
7129;DHT22;3606;52.930;8.644;2023-03-01T04:46:38;-4.80;99.90
7129;DHT22;3606;52.930;8.644;2023-03-01T04:49:04;-4.80;99.90
7129;DHT22;3606;52.930;8.644;2023-03-01T04:51:30;-4.90;99.90
7129;DHT22;3606;52.930;8.644;2023-03-01T04:53:57;-4.90;99.90
7129;DHT22;3606;52.930;8.644;2023-03-01T04:56:23;-4.90;99.90
7129;DHT22;3606;52.930;8.644;2023-03-01T04:58:49;-4.90;99.90
7129;DHT22;3606;52.930;8.644;2023-03-01T05:01:17;-4.90;99.90
7129;DHT22;3606;52.930;8.644;2023-03-01T05:03:49;-4.90;99.90
7129;DHT22;3606;52.930;8.644;2023-03-01T05:06:15;-4.90;99.90
7129;DHT22;3606;52.930;8.644;2023-03-01T05:08:42;-4.90;99.90
7129;DHT22;3606;52.930;8.644;2023-03-01T05:11:09;-5.00;99.90
7129;DHT22;3606;52.930;8.644;2023-03-01T05:13:35;-5.00;99.90
7129;DHT22;3606;52.930;8.644;2023-03-01T05:16:03;-4.90;99.90
7129;DHT22;3606;52.930;8.644;2023-03-01T05:18:33;-4.90;99.90
7129;DHT22;3606;52.930;8.644;2023-03-01T05:23:30;-4.90;99.90
7129;DHT22;3606;52.930;8.644;2023-03-01T05:26:00;-5.00;99.90
7129;DHT22;3606;52.930;8.644;2023-03-01T05:28:26;-5.00;99.90
7129;DHT22;3606;52.930;8.644;2023-03-01T05:30:54;-5.00;99.90
7129;DHT22;3606;52.930;8.644;2023-03-01T05:33:19;-5.00;99.90
7129;DHT22;3606;52.930;8.644;2023-03-01T05:35:47;-5.10;99.90
7129;DHT22;3606;52.930;8.644;2023-03-01T05:38:14;-5.10;99.90
7129;DHT22;3606;52.930;8.644;2023-03-01T05:40:44;-5.10;99.90
7129;DHT22;3606;52.930;8.644;2023-03-01T05:43:11;-5.00;99.90
7129;DHT22;3606;52.930;8.644;2023-03-01T05:45:38;-4.90;99.90
7129;DHT22;3606;52.930;8.644;2023-03-01T05:48:04;-4.80;99.90
7129;DHT22;3606;52.930;8.644;2023-03-01T05:50:34;-4.80;99.90
7129;DHT22;3606;52.930;8.644;2023-03-01T05:53:04;-4.80;99.90
7129;DHT22;3606;52.930;8.644;2023-03-01T05:55:31;-4.90;99.90
7129;DHT22;3606;52.930;8.644;2023-03-01T05:57:59;-4.90;99.90
7129;DHT22;3606;52.930;8.644;2023-03-01T06:00:26;-4.90;99.90
7129;DHT22;3606;52.930;8.644;2023-03-01T06:02:53;-4.90;99.90
7129;DHT22;3606;52.930;8.644;2023-03-01T06:05:19;-4.90;99.90
7129;DHT22;3606;52.930;8.644;2023-03-01T06:07:45;-4.90;99.90
7129;DHT22;3606;52.930;8.644;2023-03-01T06:10:12;-4.80;99.90
7129;DHT22;3606;52.930;8.644;2023-03-01T06:12:39;-4.80;99.90
7129;DHT22;3606;52.930;8.644;2023-03-01T06:15:06;-4.70;99.90
7129;DHT22;3606;52.930;8.644;2023-03-01T06:17:35;-4.60;99.90
7129;DHT22;3606;52.930;8.644;2023-03-01T06:20:04;-4.50;99.90
7129;DHT22;3606;52.930;8.644;2023-03-01T06:22:30;-4.40;99.90
7129;DHT22;3606;52.930;8.644;2023-03-01T06:24:56;-4.40;99.90
7129;DHT22;3606;52.930;8.644;2023-03-01T06:27:21;-4.30;99.90
7129;DHT22;3606;52.930;8.644;2023-03-01T06:29:47;-4.30;99.90
7129;DHT22;3606;52.930;8.644;2023-03-01T06:32:13;-4.30;99.90
7129;DHT22;3606;52.930;8.644;2023-03-01T06:34:38;-4.10;99.90
7129;DHT22;3606;52.930;8.644;2023-03-01T06:37:04;-4.00;99.90
7129;DHT22;3606;52.930;8.644;2023-03-01T06:39:32;-4.00;99.90
7129;DHT22;3606;52.930;8.644;2023-03-01T06:41:57;-3.90;99.90
7129;DHT22;3606;52.930;8.644;2023-03-01T06:44:23;-3.80;99.90
7129;DHT22;3606;52.930;8.644;2023-03-01T06:46:48;-3.80;99.90
7129;DHT22;3606;52.930;8.644;2023-03-01T06:49:14;-3.70;99.90
7129;DHT22;3606;52.930;8.644;2023-03-01T06:51:41;-3.70;99.90
7129;DHT22;3606;52.930;8.644;2023-03-01T06:54:07;-3.80;99.90
7129;DHT22;3606;52.930;8.644;2023-03-01T06:56:33;-3.90;99.90
7129;DHT22;3606;52.930;8.644;2023-03-01T06:58:58;-3.90;99.90
7129;DHT22;3606;52.930;8.644;2023-03-01T07:01:24;-3.90;99.90
7129;DHT22;3606;52.930;8.644;2023-03-01T07:03:49;-3.80;99.90
7129;DHT22;3606;52.930;8.644;2023-03-01T07:06:15;-3.70;99.90
7129;DHT22;3606;52.930;8.644;2023-03-01T07:08:41;-3.70;99.90
7129;DHT22;3606;52.930;8.644;2023-03-01T07:11:06;-3.60;99.90
7129;DHT22;3606;52.930;8.644;2023-03-01T07:13:32;-3.50;99.90
7129;DHT22;3606;52.930;8.644;2023-03-01T07:15:58;-3.30;99.90
7129;DHT22;3606;52.930;8.644;2023-03-01T07:18:23;-3.20;99.90
7129;DHT22;3606;52.930;8.644;2023-03-01T07:20:49;-3.00;99.90
7129;DHT22;3606;52.930;8.644;2023-03-01T07:23:15;-2.80;99.90
7129;DHT22;3606;52.930;8.644;2023-03-01T07:25:41;-2.50;99.90
7129;DHT22;3606;52.930;8.644;2023-03-01T07:28:06;-2.20;99.90
7129;DHT22;3606;52.930;8.644;2023-03-01T07:30:32;-1.80;99.90
7129;DHT22;3606;52.930;8.644;2023-03-01T07:32:58;-1.10;99.90
7129;DHT22;3606;52.930;8.644;2023-03-01T07:35:25;0.20;99.90
7129;DHT22;3606;52.930;8.644;2023-03-01T07:37:51;1.40;99.90
7129;DHT22;3606;52.930;8.644;2023-03-01T07:40:16;2.50;99.90
7129;DHT22;3606;52.930;8.644;2023-03-01T07:42:42;3.50;99.90
7129;DHT22;3606;52.930;8.644;2023-03-01T07:45:08;4.30;99.90
7129;DHT22;3606;52.930;8.644;2023-03-01T07:47:34;4.90;99.90
7129;DHT22;3606;52.930;8.644;2023-03-01T07:49:59;5.50;32.40
7129;DHT22;3606;52.930;8.644;2023-03-01T07:52:26;6.10;1.00
7129;DHT22;3606;52.930;8.644;2023-03-01T07:54:52;6.60;1.00
7129;DHT22;3606;52.930;8.644;2023-03-01T07:57:17;7.10;99.90
7129;DHT22;3606;52.930;8.644;2023-03-01T07:59:43;7.80;99.90
7129;DHT22;3606;52.930;8.644;2023-03-01T08:02:10;8.40;99.90
7129;DHT22;3606;52.930;8.644;2023-03-01T08:04:36;9.00;1.00
7129;DHT22;3606;52.930;8.644;2023-03-01T08:07:03;9.40;99.90
7129;DHT22;3606;52.930;8.644;2023-03-01T08:09:29;9.70;1.00
7129;DHT22;3606;52.930;8.644;2023-03-01T08:11:56;9.90;1.00
7129;DHT22;3606;52.930;8.644;2023-03-01T08:14:22;10.40;99.90
7129;DHT22;3606;52.930;8.644;2023-03-01T08:16:49;10.80;1.00
7129;DHT22;3606;52.930;8.644;2023-03-01T08:19:15;11.10;99.90
7129;DHT22;3606;52.930;8.644;2023-03-01T08:21:40;11.60;99.90
7129;DHT22;3606;52.930;8.644;2023-03-01T08:24:07;11.80;99.90
7129;DHT22;3606;52.930;8.644;2023-03-01T08:26:33;12.10;62.80
7129;DHT22;3606;52.930;8.644;2023-03-01T08:29:00;12.30;99.90
7129;DHT22;3606;52.930;8.644;2023-03-01T08:31:36;12.70;99.90
7129;DHT22;3606;52.930;8.644;2023-03-01T08:34:05;13.20;1.00
7129;DHT22;3606;52.930;8.644;2023-03-01T08:36:34;13.50;1.00
7129;DHT22;3606;52.930;8.644;2023-03-01T08:39:01;13.80;99.90
7129;DHT22;3606;52.930;8.644;2023-03-01T08:41:27;14.20;1.00
7129;DHT22;3606;52.930;8.644;2023-03-01T08:43:53;14.60;45.30
7129;DHT22;3606;52.930;8.644;2023-03-01T08:46:27;15.00;59.50
7129;DHT22;3606;52.930;8.644;2023-03-01T08:48:52;15.50;76.70
7129;DHT22;3606;52.930;8.644;2023-03-01T08:51:19;15.90;1.00
7129;DHT22;3606;52.930;8.644;2023-03-01T08:53:45;16.00;1.00
7129;DHT22;3606;52.930;8.644;2023-03-01T08:56:11;15.60;1.00
7129;DHT22;3606;52.930;8.644;2023-03-01T08:58:37;15.70;1.00
7129;DHT22;3606;52.930;8.644;2023-03-01T09:01:09;14.30;1.00
7129;DHT22;3606;52.930;8.644;2023-03-01T09:03:35;14.70;1.00
7129;DHT22;3606;52.930;8.644;2023-03-01T09:06:01;15.20;1.00
7129;DHT22;3606;52.930;8.644;2023-03-01T09:08:27;15.10;1.00
7129;DHT22;3606;52.930;8.644;2023-03-01T09:10:53;15.00;99.90
7129;DHT22;3606;52.930;8.644;2023-03-01T09:13:18;14.80;99.90
7129;DHT22;3606;52.930;8.644;2023-03-01T09:15:44;15.30;99.90
7129;DHT22;3606;52.930;8.644;2023-03-01T09:18:10;15.00;99.90
7129;DHT22;3606;52.930;8.644;2023-03-01T09:20:35;15.00;99.90
7129;DHT22;3606;52.930;8.644;2023-03-01T09:23:01;14.80;99.90
7129;DHT22;3606;52.930;8.644;2023-03-01T09:25:27;15.00;99.90
7129;DHT22;3606;52.930;8.644;2023-03-01T09:27:54;15.30;99.90
7129;DHT22;3606;52.930;8.644;2023-03-01T09:30:20;15.40;99.90
7129;DHT22;3606;52.930;8.644;2023-03-01T09:32:46;15.70;99.90
7129;DHT22;3606;52.930;8.644;2023-03-01T09:35:12;15.50;99.90
7129;DHT22;3606;52.930;8.644;2023-03-01T09:37:38;15.50;99.90
7129;DHT22;3606;52.930;8.644;2023-03-01T09:40:18;16.00;99.90
7129;DHT22;3606;52.930;8.644;2023-03-01T09:42:53;16.20;99.90
7129;DHT22;3606;52.930;8.644;2023-03-01T09:47:55;15.40;99.90
7129;DHT22;3606;52.930;8.644;2023-03-01T09:50:22;15.90;99.90
7129;DHT22;3606;52.930;8.644;2023-03-01T09:55:31;15.80;99.90
7129;DHT22;3606;52.930;8.644;2023-03-01T09:58:06;16.30;99.90
7129;DHT22;3606;52.930;8.644;2023-03-01T10:00:43;16.50;99.90
7129;DHT22;3606;52.930;8.644;2023-03-01T10:03:27;16.30;99.90
7129;DHT22;3606;52.930;8.644;2023-03-01T10:06:15;16.30;99.90
7129;DHT22;3606;52.930;8.644;2023-03-01T10:11:20;18.20;99.90
7129;DHT22;3606;52.930;8.644;2023-03-01T10:14:07;17.30;99.90
7129;DHT22;3606;52.930;8.644;2023-03-01T10:17:00;17.40;99.90
7129;DHT22;3606;52.930;8.644;2023-03-01T10:19:41;17.40;99.90
7129;DHT22;3606;52.930;8.644;2023-03-01T10:22:26;16.50;99.90
7129;DHT22;3606;52.930;8.644;2023-03-01T10:24:54;17.10;99.90
7129;DHT22;3606;52.930;8.644;2023-03-01T10:27:26;16.70;99.90
7129;DHT22;3606;52.930;8.644;2023-03-01T10:30:16;16.40;99.90
7129;DHT22;3606;52.930;8.644;2023-03-01T10:32:45;15.60;99.90
7129;DHT22;3606;52.930;8.644;2023-03-01T10:35:25;15.80;99.90
7129;DHT22;3606;52.930;8.644;2023-03-01T10:38:05;16.20;99.90
7129;DHT22;3606;52.930;8.644;2023-03-01T10:40:32;15.60;99.90
7129;DHT22;3606;52.930;8.644;2023-03-01T10:42:59;15.00;99.90
7129;DHT22;3606;52.930;8.644;2023-03-01T10:48:14;15.30;99.90
7129;DHT22;3606;52.930;8.644;2023-03-01T10:50:45;14.90;99.90
7129;DHT22;3606;52.930;8.644;2023-03-01T10:55:57;14.70;99.90
7129;DHT22;3606;52.930;8.644;2023-03-01T10:58:23;14.90;99.90
7129;DHT22;3606;52.930;8.644;2023-03-01T11:00:53;14.40;99.90
7129;DHT22;3606;52.930;8.644;2023-03-01T11:03:32;13.70;99.90
7129;DHT22;3606;52.930;8.644;2023-03-01T11:08:44;14.60;99.90
7129;DHT22;3606;52.930;8.644;2023-03-01T11:16:39;13.70;99.90
7129;DHT22;3606;52.930;8.644;2023-03-01T11:22:20;13.00;99.90
7129;DHT22;3606;52.930;8.644;2023-03-01T11:24:26;13.00;99.90
7129;DHT22;3606;52.930;8.644;2023-03-01T11:26:54;12.90;99.90
7129;DHT22;3606;52.930;8.644;2023-03-01T11:29:56;13.20;99.90
7129;DHT22;3606;52.930;8.644;2023-03-01T11:32:25;13.90;99.90
7129;DHT22;3606;52.930;8.644;2023-03-01T11:35:17;14.20;99.90
7129;DHT22;3606;52.930;8.644;2023-03-01T11:40:24;14.10;99.90
7129;DHT22;3606;52.930;8.644;2023-03-01T11:50:50;13.40;99.90
7129;DHT22;3606;52.930;8.644;2023-03-01T11:53:38;13.10;99.90
7129;DHT22;3606;52.930;8.644;2023-03-01T11:56:32;13.30;99.90
7129;DHT22;3606;52.930;8.644;2023-03-01T12:10:36;12.30;1.00
7129;DHT22;3606;52.930;8.644;2023-03-01T12:18:53;11.70;1.00
7129;DHT22;3606;52.930;8.644;2023-03-01T12:24:28;11.10;1.00
7129;DHT22;3606;52.930;8.644;2023-03-01T12:27:14;11.30;1.00
7129;DHT22;3606;52.930;8.644;2023-03-01T12:30:51;11.20;1.00
7129;DHT22;3606;52.930;8.644;2023-03-01T12:35:36;11.20;1.00
7129;DHT22;3606;52.930;8.644;2023-03-01T12:38:42;11.20;1.00
7129;DHT22;3606;52.930;8.644;2023-03-01T12:44:15;11.40;1.00
7129;DHT22;3606;52.930;8.644;2023-03-01T12:50:18;11.70;1.00
7129;DHT22;3606;52.930;8.644;2023-03-01T12:52:52;11.80;1.00
7129;DHT22;3606;52.930;8.644;2023-03-01T12:55:34;11.90;1.00
7129;DHT22;3606;52.930;8.644;2023-03-01T12:58:21;12.10;1.00
7129;DHT22;3606;52.930;8.644;2023-03-01T13:03:33;11.70;1.00
7129;DHT22;3606;52.930;8.644;2023-03-01T13:08:57;11.30;1.00
7129;DHT22;3606;52.930;8.644;2023-03-01T13:11:25;11.20;1.00
7129;DHT22;3606;52.930;8.644;2023-03-01T13:13:51;11.30;1.00
7129;DHT22;3606;52.930;8.644;2023-03-01T13:16:38;11.30;1.00
7129;DHT22;3606;52.930;8.644;2023-03-01T13:19:14;11.40;1.00
7129;DHT22;3606;52.930;8.644;2023-03-01T13:21:41;11.40;1.00
7129;DHT22;3606;52.930;8.644;2023-03-01T13:24:35;11.50;1.00
7129;DHT22;3606;52.930;8.644;2023-03-01T13:27:18;11.50;1.00
7129;DHT22;3606;52.930;8.644;2023-03-01T13:32:31;12.10;1.00
7129;DHT22;3606;52.930;8.644;2023-03-01T13:37:52;12.40;1.00
7129;DHT22;3606;52.930;8.644;2023-03-01T13:42:55;12.90;1.00
7129;DHT22;3606;52.930;8.644;2023-03-01T13:45:22;12.60;1.00
7129;DHT22;3606;52.930;8.644;2023-03-01T13:50:57;12.10;1.00
7129;DHT22;3606;52.930;8.644;2023-03-01T13:53:26;12.10;1.00
7129;DHT22;3606;52.930;8.644;2023-03-01T13:55:58;12.30;1.00
7129;DHT22;3606;52.930;8.644;2023-03-01T13:58:29;12.50;1.00
7129;DHT22;3606;52.930;8.644;2023-03-01T14:03:21;13.30;1.00
7129;DHT22;3606;52.930;8.644;2023-03-01T14:08:27;13.50;1.00
7129;DHT22;3606;52.930;8.644;2023-03-01T14:19:18;12.80;1.00
7129;DHT22;3606;52.930;8.644;2023-03-01T14:21:45;12.50;1.00
7129;DHT22;3606;52.930;8.644;2023-03-01T14:24:20;12.70;1.00
7129;DHT22;3606;52.930;8.644;2023-03-01T14:26:47;12.70;1.00
7129;DHT22;3606;52.930;8.644;2023-03-01T14:29:27;12.50;1.00
7129;DHT22;3606;52.930;8.644;2023-03-01T14:32:29;12.70;1.00
7129;DHT22;3606;52.930;8.644;2023-03-01T14:34:54;12.90;1.00
7129;DHT22;3606;52.930;8.644;2023-03-01T14:39:50;12.40;1.00
7129;DHT22;3606;52.930;8.644;2023-03-01T14:42:18;11.70;1.00
7129;DHT22;3606;52.930;8.644;2023-03-01T14:44:46;10.70;1.00
7129;DHT22;3606;52.930;8.644;2023-03-01T14:47:15;10.00;1.00
7129;DHT22;3606;52.930;8.644;2023-03-01T14:49:43;9.60;1.00
7129;DHT22;3606;52.930;8.644;2023-03-01T14:52:21;9.50;7.70
7129;DHT22;3606;52.930;8.644;2023-03-01T14:54:52;9.20;99.90
7129;DHT22;3606;52.930;8.644;2023-03-01T14:57:26;9.60;68.90
7129;DHT22;3606;52.930;8.644;2023-03-01T15:00:03;10.40;1.00
7129;DHT22;3606;52.930;8.644;2023-03-01T15:02:32;11.20;1.00
7129;DHT22;3606;52.930;8.644;2023-03-01T15:05:01;11.60;1.00
7129;DHT22;3606;52.930;8.644;2023-03-01T15:07:33;12.10;1.00
7129;DHT22;3606;52.930;8.644;2023-03-01T15:10:02;12.80;1.00
7129;DHT22;3606;52.930;8.644;2023-03-01T15:14:55;13.10;1.00
7129;DHT22;3606;52.930;8.644;2023-03-01T15:17:36;13.30;1.00
7129;DHT22;3606;52.930;8.644;2023-03-01T15:20:06;13.70;1.00
7129;DHT22;3606;52.930;8.644;2023-03-01T15:22:32;13.70;1.00
7129;DHT22;3606;52.930;8.644;2023-03-01T15:24:58;13.80;1.00
7129;DHT22;3606;52.930;8.644;2023-03-01T15:27:25;13.90;1.00
7129;DHT22;3606;52.930;8.644;2023-03-01T15:29:59;13.60;1.00
7129;DHT22;3606;52.930;8.644;2023-03-01T15:32:33;13.50;1.00
7129;DHT22;3606;52.930;8.644;2023-03-01T15:35:01;13.00;1.00
7129;DHT22;3606;52.930;8.644;2023-03-01T15:37:49;11.60;1.00
7129;DHT22;3606;52.930;8.644;2023-03-01T15:42:57;9.00;99.90
7129;DHT22;3606;52.930;8.644;2023-03-01T15:45:27;8.40;99.90
7129;DHT22;3606;52.930;8.644;2023-03-01T15:47:58;8.00;1.00
7129;DHT22;3606;52.930;8.644;2023-03-01T15:50:31;7.70;1.00
7129;DHT22;3606;52.930;8.644;2023-03-01T15:52:59;7.50;60.70
7129;DHT22;3606;52.930;8.644;2023-03-01T15:55:28;7.40;99.90
7129;DHT22;3606;52.930;8.644;2023-03-01T16:00:32;7.20;99.90
7129;DHT22;3606;52.930;8.644;2023-03-01T16:02:58;7.00;99.90
7129;DHT22;3606;52.930;8.644;2023-03-01T16:05:27;6.90;1.00
7129;DHT22;3606;52.930;8.644;2023-03-01T16:07:53;6.80;1.00
7129;DHT22;3606;52.930;8.644;2023-03-01T16:10:19;6.80;26.70
7129;DHT22;3606;52.930;8.644;2023-03-01T16:12:45;6.80;99.90
7129;DHT22;3606;52.930;8.644;2023-03-01T16:15:25;6.70;99.90
7129;DHT22;3606;52.930;8.644;2023-03-01T16:17:51;6.60;99.90
7129;DHT22;3606;52.930;8.644;2023-03-01T16:20:17;6.50;1.00
7129;DHT22;3606;52.930;8.644;2023-03-01T16:22:44;6.40;1.00
7129;DHT22;3606;52.930;8.644;2023-03-01T16:25:12;6.30;1.00
7129;DHT22;3606;52.930;8.644;2023-03-01T16:27:38;6.20;1.00
7129;DHT22;3606;52.930;8.644;2023-03-01T16:30:05;6.10;1.00
7129;DHT22;3606;52.930;8.644;2023-03-01T16:32:31;6.10;99.90
7129;DHT22;3606;52.930;8.644;2023-03-01T16:34:57;6.00;99.90
7129;DHT22;3606;52.930;8.644;2023-03-01T16:37:23;5.90;99.90
7129;DHT22;3606;52.930;8.644;2023-03-01T16:39:48;5.80;1.00
7129;DHT22;3606;52.930;8.644;2023-03-01T16:42:16;5.60;99.90
7129;DHT22;3606;52.930;8.644;2023-03-01T16:44:42;5.50;21.50
7129;DHT22;3606;52.930;8.644;2023-03-01T16:47:08;5.30;99.90
7129;DHT22;3606;52.930;8.644;2023-03-01T16:49:33;5.00;1.00
7129;DHT22;3606;52.930;8.644;2023-03-01T16:51:59;4.80;99.90
7129;DHT22;3606;52.930;8.644;2023-03-01T16:54:24;4.70;1.00
7129;DHT22;3606;52.930;8.644;2023-03-01T16:56:50;4.60;99.90
7129;DHT22;3606;52.930;8.644;2023-03-01T16:59:16;4.50;1.00
7129;DHT22;3606;52.930;8.644;2023-03-01T17:01:43;4.50;1.00
7129;DHT22;3606;52.930;8.644;2023-03-01T17:04:12;4.40;99.90
7129;DHT22;3606;52.930;8.644;2023-03-01T17:06:38;4.30;14.50
7129;DHT22;3606;52.930;8.644;2023-03-01T17:09:04;4.10;10.70
7129;DHT22;3606;52.930;8.644;2023-03-01T17:11:30;3.90;1.00
7129;DHT22;3606;52.930;8.644;2023-03-01T17:13:56;3.80;99.90
7129;DHT22;3606;52.930;8.644;2023-03-01T17:16:21;3.60;68.50
7129;DHT22;3606;52.930;8.644;2023-03-01T17:18:47;3.50;99.90
7129;DHT22;3606;52.930;8.644;2023-03-01T17:21:14;3.40;99.90
7129;DHT22;3606;52.930;8.644;2023-03-01T17:23:42;3.30;1.00
7129;DHT22;3606;52.930;8.644;2023-03-01T17:26:08;3.20;1.00
7129;DHT22;3606;52.930;8.644;2023-03-01T17:28:35;3.00;99.90
7129;DHT22;3606;52.930;8.644;2023-03-01T17:31:02;2.90;1.00
7129;DHT22;3606;52.930;8.644;2023-03-01T17:33:29;3.10;99.90
7129;DHT22;3606;52.930;8.644;2023-03-01T17:35:58;3.10;99.90
7129;DHT22;3606;52.930;8.644;2023-03-01T17:38:24;3.10;1.00
7129;DHT22;3606;52.930;8.644;2023-03-01T17:40:50;3.10;1.00
7129;DHT22;3606;52.930;8.644;2023-03-01T17:43:16;3.10;1.00
7129;DHT22;3606;52.930;8.644;2023-03-01T17:45:43;3.00;1.00
7129;DHT22;3606;52.930;8.644;2023-03-01T17:48:13;2.90;1.00
7129;DHT22;3606;52.930;8.644;2023-03-01T17:50:39;2.80;1.00
7129;DHT22;3606;52.930;8.644;2023-03-01T17:53:06;2.60;1.00
7129;DHT22;3606;52.930;8.644;2023-03-01T17:55:35;2.50;1.00
7129;DHT22;3606;52.930;8.644;2023-03-01T17:58:02;2.50;1.00
7129;DHT22;3606;52.930;8.644;2023-03-01T18:00:28;2.50;96.50
7129;DHT22;3606;52.930;8.644;2023-03-01T18:02:53;2.50;99.90
7129;DHT22;3606;52.930;8.644;2023-03-01T18:05:19;2.60;99.90
7129;DHT22;3606;52.930;8.644;2023-03-01T18:07:45;2.70;99.90
7129;DHT22;3606;52.930;8.644;2023-03-01T18:10:10;2.70;99.90
7129;DHT22;3606;52.930;8.644;2023-03-01T18:12:37;2.80;99.90
7129;DHT22;3606;52.930;8.644;2023-03-01T18:15:04;2.90;99.90
7129;DHT22;3606;52.930;8.644;2023-03-01T18:17:30;3.00;99.90
7129;DHT22;3606;52.930;8.644;2023-03-01T18:19:55;3.00;99.90